BAW24LV DAAG-EGKK
Flight info
| Callsign | BAW24LV |
|---|---|
| Flight time | N/A |
| Altitude | 36000 |
| Route | PECES DCT MAMOM DCT ELTAN DCT MHN DCT MEROS DCT LAPIT DCT CHELY DCT LUMAS DCT SOFFY DCT MRM DCT MTL DCT ETREK DCT MADOT DCT MOPEM DCT CACHI DCT AVLON DCT OKRIX DCT BRY DCT CLM DCT KOPOR DCT KESAX DCT KUNAV |
| Aircraft | A321/M-SDE3FGHIRWY/LB1 |
Departure
| Time | N/A |
|---|---|
| Airport | Houari Boumediene Airport (DAAG) |
Arrival
| Time | 2026-05-04 16:41 |
|---|---|
| Airport | London Gatwick Airport (EGKK) |
| Time | Latitude | Longitude | Altitude | Speed | Heading |
|---|---|---|---|---|---|
| 2026-05-04 16:26 | 50.78216 | 0.58531 | 12365 ft | 303 kts | 309° |
| 2026-05-04 16:26 | 50.82098 | 0.50877 | 11217 ft | 296 kts | 309° |
| 2026-05-04 16:27 | 50.84650 | 0.45842 | 10270 ft | 291 kts | 309° |
| 2026-05-04 16:28 | 50.88397 | 0.38429 | 9132 ft | 286 kts | 309° |
| 2026-05-04 16:28 | 50.92082 | 0.31109 | 8165 ft | 281 kts | 308° |
| 2026-05-04 16:29 | 50.95274 | 0.20171 | 6988 ft | 273 kts | 286° |
| 2026-05-04 16:30 | 50.96827 | 0.11420 | 6978 ft | 275 kts | 286° |
| 2026-05-04 16:31 | 50.97865 | 0.05629 | 6982 ft | 276 kts | 286° |
| 2026-05-04 16:31 | 50.99387 | -0.02823 | 6990 ft | 259 kts | 286° |
| 2026-05-04 16:32 | 51.00849 | -0.11032 | 6996 ft | 258 kts | 286° |
| 2026-05-04 16:33 | 51.01825 | -0.16535 | 6989 ft | 258 kts | 286° |
| 2026-05-04 16:33 | 51.02795 | -0.22017 | 6996 ft | 259 kts | 286° |
| 2026-05-04 16:34 | 51.03758 | -0.27478 | 6547 ft | 257 kts | 286° |
| 2026-05-04 16:34 | 51.04234 | -0.30192 | 6199 ft | 257 kts | 286° |
| 2026-05-04 16:35 | 51.05658 | -0.38354 | 5329 ft | 251 kts | 286° |
| 2026-05-04 16:35 | 51.06940 | -0.45875 | 4794 ft | 212 kts | 287° |
| 2026-05-04 16:36 | 51.07473 | -0.47940 | 4529 ft | 197 kts | 309° |
| 2026-05-04 16:36 | 51.09788 | -0.48883 | 3743 ft | 181 kts | 28° |
| 2026-05-04 16:37 | 51.11095 | -0.45573 | 3285 ft | 183 kts | 72° |
| 2026-05-04 16:37 | 51.11433 | -0.43621 | 3041 ft | 179 kts | 75° |
| 2026-05-04 16:37 | 51.11973 | -0.39875 | 2571 ft | 169 kts | 76° |
| 2026-05-04 16:38 | 51.12443 | -0.36384 | 2176 ft | 157 kts | 76° |
| 2026-05-04 16:39 | 51.13130 | -0.31324 | 1552 ft | 154 kts | 76° |
| 2026-05-04 16:39 | 51.13544 | -0.28277 | 1134 ft | 133 kts | 75° |
| 2026-05-04 16:40 | 51.13934 | -0.25402 | 793 ft | 132 kts | 77° |
| 2026-05-04 16:40 | 51.14326 | -0.22568 | 450 ft | 131 kts | 76° |
| 2026-05-04 16:41 | 51.14719 | -0.19750 | 197 ft | 123 kts | 77° |
| 2026-05-04 16:41 | 51.15093 | -0.18210 | 196 ft | 9 kts | 51° |
| 2026-05-04 16:42 | 51.15147 | -0.17947 | 196 ft | 10 kts | 77° |
| 2026-05-04 16:43 | 51.15192 | -0.17618 | 195 ft | 22 kts | 77° |
| 2026-05-04 16:43 | 51.15241 | -0.17263 | 193 ft | 19 kts | 78° |
| 2026-05-04 16:43 | 51.15270 | -0.17053 | 192 ft | 19 kts | 77° |
| 2026-05-04 16:44 | 51.15366 | -0.16554 | 197 ft | 8 kts | 78° |
| 2026-05-04 16:45 | 51.15402 | -0.16418 | 199 ft | 3 kts | 75° |